Time;durP1;ratioP1;P1;durP2;ratioP2;P2;SDS_P1;SDS_P2;PMS_P1;PMS_P2;Temp;Humidity;BMP_temperature;BMP_pressure;BME280_temperature;BME280_humidity;BME280_pressure;Samples;Min_cycle;Max_cycle;Signal;HPM_P1;HPM_P2
2021/01/26 00:01:19;;;;;;;7.57;3.38;;;2.90;98.20;;;;;;4916119;29;20040;-73
2021/01/26 00:03:45;;;;;;;7.80;3.20;;;2.90;98.20;;;;;;4916154;29;20036;-80
2021/01/26 00:06:12;;;;;;;7.30;3.20;;;3.00;98.20;;;;;;4916080;29;20104;-80
2021/01/26 00:08:38;;;;;;;8.73;3.40;;;2.90;98.20;;;;;;4911785;29;20164;-80
2021/01/26 00:11:05;;;;;;;8.05;3.38;;;3.00;98.30;;;;;;4913776;29;20067;-80
2021/01/26 00:13:32;;;;;;;7.90;3.15;;;2.90;98.50;;;;;;4916208;29;20036;-80
2021/01/26 00:15:58;;;;;;;14.80;3.72;;;3.30;98.40;;;;;;4899199;29;20056;-80
2021/01/26 00:18:24;;;;;;;9.90;3.72;;;3.00;98.30;;;;;;4917072;29;20094;-80
2021/01/26 00:20:50;;;;;;;8.07;3.40;;;3.00;98.30;;;;;;4919818;29;20111;-80
2021/01/26 00:23:17;;;;;;;9.07;2.80;;;3.10;98.30;;;;;;4919424;29;20623;-80
2021/01/26 00:25:43;;;;;;;12.52;3.55;;;3.10;99.40;;;;;;4913667;29;20044;-79
2021/01/26 00:28:11;;;;;;;8.85;2.88;;;3.20;99.20;;;;;;4902369;29;20046;-80
2021/01/26 00:30:39;;;;;;;11.00;3.17;;;3.30;98.80;;;;;;4919646;29;20048;-80
2021/01/26 00:33:12;;;;;;;14.18;3.88;;;3.30;98.60;;;;;;4919563;29;20083;-80
2021/01/26 00:35:38;;;;;;;17.27;4.03;;;3.40;98.50;;;;;;4919385;29;20481;-80
2021/01/26 00:38:05;;;;;;;13.13;3.38;;;3.40;98.50;;;;;;4919526;29;20086;-80
2021/01/26 00:40:31;;;;;;;13.70;3.47;;;3.40;98.60;;;;;;4902670;29;20048;-81
2021/01/26 00:42:58;;;;;;;11.73;3.33;;;3.40;98.40;;;;;;4919474;29;20515;-80
2021/01/26 00:45:25;;;;;;;12.43;3.00;;;3.40;98.20;;;;;;4932703;29;20048;-73
2021/01/26 00:47:52;;;;;;;8.85;3.85;;;3.30;97.70;;;;;;4908793;29;20083;-72
2021/01/26 00:50:19;;;;;;;11.27;3.85;;;3.20;98.30;;;;;;4918885;29;20044;-73
2021/01/26 00:52:46;;;;;;;11.38;4.07;;;3.10;98.00;;;;;;4919129;29;20469;-73
2021/01/26 00:55:13;;;;;;;10.02;3.78;;;3.00;97.90;;;;;;4902297;29;20064;-72
2021/01/26 00:57:39;;;;;;;8.18;3.97;;;2.90;98.20;;;;;;4918495;29;20044;-72
2021/01/26 01:00:09;;;;;;;10.85;4.45;;;2.70;98.00;;;;;;4902250;29;20123;-73
2021/01/26 01:02:35;;;;;;;12.68;4.85;;;2.50;98.50;;;;;;4918815;29;20052;-73
2021/01/26 01:05:01;;;;;;;12.32;4.80;;;2.40;98.70;;;;;;4915675;29;20479;-72
2021/01/26 01:07:27;;;;;;;8.57;4.80;;;2.40;98.60;;;;;;4914674;29;20051;-72
2021/01/26 01:09:53;;;;;;;9.63;5.07;;;2.40;98.70;;;;;;4918929;29;20043;-72
2021/01/26 01:12:18;;;;;;;10.68;5.88;;;2.40;98.60;;;;;;4918533;29;20115;-72
2021/01/26 01:14:44;;;;;;;11.20;5.35;;;2.70;98.60;;;;;;4901847;29;20044;-72
2021/01/26 01:17:11;;;;;;;12.60;6.60;;;2.60;98.80;;;;;;4918621;29;20059;-72
2021/01/26 01:19:36;;;;;;;12.07;8.15;;;2.30;98.80;;;;;;4933224;29;20043;-74
2021/01/26 01:22:02;;;;;;;12.57;8.25;;;2.40;98.90;;;;;;4900921;29;20111;-73
2021/01/26 01:24:28;;;;;;;13.88;8.25;;;2.20;99.00;;;;;;4918525;29;20036;-74
2021/01/26 01:26:54;;;;;;;11.35;7.55;;;2.10;98.90;;;;;;4918554;29;20048;-73
2021/01/26 01:29:20;;;;;;;11.45;7.43;;;2.00;99.00;;;;;;4918006;29;20449;-73
2021/01/26 01:31:45;;;;;;;10.18;6.80;;;2.00;99.30;;;;;;4901358;29;20135;-73
2021/01/26 01:34:11;;;;;;;10.23;6.90;;;2.00;99.10;;;;;;4901583;29;20036;-74
2021/01/26 01:36:38;;;;;;;10.23;6.72;;;2.00;99.40;;;;;;4918250;29;20579;-73
2021/01/26 01:39:06;;;;;;;10.30;6.95;;;2.10;99.00;;;;;;4900802;29;20167;-73
2021/01/26 01:41:37;;;;;;;9.40;6.07;;;2.10;98.80;;;;;;4918236;29;20112;-71
2021/01/26 01:44:06;;;;;;;7.13;5.82;;;2.00;98.40;;;;;;4918135;29;20028;-72
2021/01/26 01:46:40;;;;;;;9.70;5.50;;;1.90;98.70;;;;;;4901513;29;20051;-72
2021/01/26 01:49:10;;;;;;;8.90;5.93;;;2.10;98.80;;;;;;4918055;29;20115;-71
2021/01/26 01:51:41;;;;;;;7.47;5.82;;;2.20;98.80;;;;;;4918019;29;20036;-71
2021/01/26 01:54:16;;;;;;;8.50;6.40;;;2.20;98.60;;;;;;4912278;29;20078;-72
2021/01/26 01:56:42;;;;;;;10.07;7.00;;;2.20;98.20;;;;;;4917943;29;20044;-72
2021/01/26 01:59:18;;;;;;;9.32;7.38;;;2.20;98.40;;;;;;4917767;29;20458;-71
2021/01/26 02:01:45;;;;;;;9.07;7.55;;;2.20;98.30;;;;;;4917786;29;20492;-73
2021/01/26 02:04:15;;;;;;;8.40;7.40;;;2.20;98.20;;;;;;4900692;29;20124;-72
2021/01/26 02:06:44;;;;;;;11.60;9.45;;;2.20;98.20;;;;;;4917634;29;20174;-72
2021/01/26 02:09:22;;;;;;;9.73;8.02;;;2.20;98.40;;;;;;4917627;29;20087;-73
2021/01/26 02:11:48;;;;;;;11.25;8.23;;;2.20;98.30;;;;;;4907544;29;20071;-74
2021/01/26 02:14:15;;;;;;;10.40;8.95;;;2.30;98.20;;;;;;4900611;29;20408;-74
2021/01/26 02:16:59;;;;;;;10.27;9.02;;;2.30;98.00;;;;;;4917533;29;20078;-74
2021/01/26 02:19:50;;;;;;;12.18;9.25;;;2.30;98.20;;;;;;4917276;29;20047;-73
2021/01/26 02:22:54;;;;;;;12.93;9.05;;;2.30;98.30;;;;;;4917301;29;20036;-74
2021/01/26 02:26:02;;;;;;;12.00;10.10;;;2.40;98.40;;;;;;4906905;29;20032;-74
2021/01/26 02:28:57;;;;;;;12.15;10.00;;;2.40;98.10;;;;;;4910335;29;20068;-73
2021/01/26 02:31:54;;;;;;;13.15;10.68;;;2.30;98.10;;;;;;4917464;29;20074;-73
2021/01/26 02:34:50;;;;;;;14.15;11.07;;;2.40;98.40;;;;;;4907646;29;20138;-73
2021/01/26 02:37:46;;;;;;;12.77;10.88;;;2.50;98.40;;;;;;4892580;29;20548;-72
2021/01/26 02:40:21;;;;;;;11.90;10.60;;;2.50;98.20;;;;;;4931697;29;20497;-73
2021/01/26 02:43:04;;;;;;;12.80;10.77;;;2.50;98.00;;;;;;4899554;29;20040;-73
2021/01/26 02:45:42;;;;;;;13.27;10.95;;;2.50;97.80;;;;;;4908419;29;20032;-73
2021/01/26 02:48:30;;;;;;;14.95;11.18;;;2.50;97.90;;;;;;4916717;29;20044;-74
2021/01/26 02:51:04;;;;;;;13.38;10.85;;;2.60;98.20;;;;;;4916938;29;20047;-73
2021/01/26 02:53:39;;;;;;;13.88;11.20;;;2.70;98.00;;;;;;4898641;29;20040;-74
2021/01/26 02:56:37;;;;;;;14.63;11.23;;;2.60;97.70;;;;;;4916860;29;20040;-74
2021/01/26 02:59:22;;;;;;;13.80;11.38;;;2.70;97.90;;;;;;4916646;29;20044;-74
2021/01/26 03:01:54;;;;;;;13.23;11.07;;;2.70;98.00;;;;;;4931105;29;20087;-73
2021/01/26 03:04:26;;;;;;;12.68;11.18;;;2.60;97.70;;;;;;4916578;29;20039;-74
2021/01/26 03:06:57;;;;;;;12.98;10.20;;;2.60;98.10;;;;;;4916728;29;20446;-74
2021/01/26 03:09:31;;;;;;;12.52;10.82;;;2.60;97.80;;;;;;4916723;29;20437;-74
2021/01/26 03:12:08;;;;;;;15.88;11.52;;;3.00;97.90;;;;;;4916365;29;20036;-74
2021/01/26 03:14:39;;;;;;;14.02;10.57;;;2.50;98.00;;;;;;4916788;29;20124;-75
2021/01/26 03:17:21;;;;;;;15.38;11.73;;;2.60;98.10;;;;;;4913833;29;20055;-74
2021/01/26 03:19:50;;;;;;;14.57;12.00;;;2.70;98.20;;;;;;4908203;29;20492;-74
2021/01/26 03:22:22;;;;;;;15.88;11.55;;;2.70;97.80;;;;;;4916178;29;20111;-74
2021/01/26 03:24:52;;;;;;;12.65;10.13;;;2.70;97.70;;;;;;4916473;29;20039;-74
2021/01/26 03:27:22;;;;;;;12.30;10.35;;;2.80;97.80;;;;;;4916222;29;20122;-74
2021/01/26 03:29:51;;;;;;;11.77;9.93;;;2.80;97.80;;;;;;4916303;29;20040;-74
2021/01/26 03:32:22;;;;;;;12.57;9.50;;;2.80;97.70;;;;;;4916325;29;20047;-74
2021/01/26 03:34:48;;;;;;;12.52;10.10;;;2.90;97.60;;;;;;4905631;29;20548;-74
2021/01/26 03:37:15;;;;;;;11.93;9.93;;;2.80;97.80;;;;;;4899244;29;20037;-74
2021/01/26 03:39:41;;;;;;;12.57;9.55;;;2.90;97.60;;;;;;4930445;29;20068;-74
2021/01/26 03:42:07;;;;;;;11.68;9.45;;;2.90;97.70;;;;;;4916347;29;20493;-74
2021/01/26 03:44:33;;;;;;;11.48;9.40;;;3.00;97.60;;;;;;4916296;29;20036;-74
2021/01/26 03:47:26;;;;;;;10.93;9.73;;;3.00;97.40;;;;;;4916248;29;20512;-72
2021/01/26 03:50:10;;;;;;;11.07;9.35;;;3.00;97.40;;;;;;4903826;29;20036;-73
2021/01/26 03:53:09;;;;;;;11.70;9.10;;;3.00;97.30;;;;;;4931557;29;20111;-73
2021/01/26 03:55:53;;;;;;;11.05;8.25;;;3.00;97.40;;;;;;4920472;29;20040;-72
2021/01/26 03:58:38;;;;;;;12.95;9.40;;;3.10;97.40;;;;;;4919691;29;20040;-72
2021/01/26 04:01:33;;;;;;;11.90;8.95;;;3.10;97.20;;;;;;4919935;29;20044;-72
2021/01/26 04:04:14;;;;;;;11.15;8.60;;;3.10;97.00;;;;;;4910165;29;20059;-73
2021/01/26 04:06:50;;;;;;;9.65;7.65;;;3.10;97.10;;;;;;4919794;29;20059;-73
2021/01/26 04:09:23;;;;;;;10.48;8.70;;;3.10;96.90;;;;;;4919958;29;20122;-73
2021/01/26 04:11:49;;;;;;;11.65;8.15;;;3.00;97.00;;;;;;4919518;29;20429;-73
2021/01/26 04:14:21;;;;;;;11.68;8.20;;;3.00;96.90;;;;;;4919799;29;20044;-73
2021/01/26 04:16:55;;;;;;;9.90;8.45;;;3.00;96.80;;;;;;4919461;29;20433;-73
2021/01/26 04:19:25;;;;;;;11.43;8.65;;;3.10;97.00;;;;;;4919758;29;20056;-73
2021/01/26 04:21:50;;;;;;;10.20;7.55;;;3.10;97.10;;;;;;4917160;29;20086;-74
2021/01/26 04:24:18;;;;;;;9.95;8.10;;;3.10;97.20;;;;;;4919605;29;20448;-74
2021/01/26 04:26:46;;;;;;;16.05;8.43;;;3.10;97.30;;;;;;4919591;29;20098;-74
2021/01/26 04:29:12;;;;;;;9.82;7.50;;;3.10;97.50;;;;;;4918239;29;20055;-74
2021/01/26 04:31:38;;;;;;;11.18;7.65;;;3.10;97.40;;;;;;4919631;29;20044;-74
2021/01/26 04:34:04;;;;;;;12.07;8.23;;;3.10;97.20;;;;;;4919349;29;20498;-74
2021/01/26 04:36:30;;;;;;;12.25;8.23;;;3.10;97.20;;;;;;4919371;29;20407;-74
2021/01/26 04:38:56;;;;;;;11.55;7.90;;;3.20;97.20;;;;;;4919392;29;20048;-74
2021/01/26 04:41:42;;;;;;;10.57;7.90;;;3.20;97.00;;;;;;4913062;29;20041;-74
2021/01/26 04:44:21;;;;;;;9.90;7.60;;;3.80;97.20;;;;;;4917060;29;20040;-74
2021/01/26 04:47:00;;;;;;;8.57;7.35;;;3.20;97.10;;;;;;4919326;29;20507;-74
2021/01/26 04:49:55;;;;;;;9.55;7.45;;;3.20;97.30;;;;;;4918992;29;20122;-73
2021/01/26 04:52:47;;;;;;;9.68;7.07;;;3.20;97.30;;;;;;4918979;29;20115;-73
2021/01/26 04:55:30;;;;;;;8.57;6.63;;;3.20;97.20;;;;;;4933905;29;20397;-73
2021/01/26 04:57:59;;;;;;;11.50;7.15;;;3.20;97.50;;;;;;4918830;29;20540;-73
2021/01/26 05:00:45;;;;;;;8.90;5.05;;;3.20;97.50;;;;;;4929841;29;20052;-73
2021/01/26 05:03:33;;;;;;;9.43;6.22;;;3.30;97.20;;;;;;4915889;29;20044;-73
2021/01/26 05:06:02;;;;;;;11.43;5.05;;;3.30;97.40;;;;;;4918254;29;20068;-74
2021/01/26 05:08:37;;;;;;;10.40;5.03;;;3.30;97.10;;;;;;4918746;29;20119;-74
2021/01/26 05:11:10;;;;;;;7.03;4.82;;;3.30;97.00;;;;;;4932945;29;20512;-73
2021/01/26 05:13:57;;;;;;;6.90;4.10;;;3.40;97.10;;;;;;4918789;29;20473;-73
2021/01/26 05:16:38;;;;;;;7.32;4.70;;;3.40;97.10;;;;;;4918230;29;20104;-74
2021/01/26 05:19:10;;;;;;;9.95;5.32;;;3.40;97.00;;;;;;4906954;29;20032;-74
2021/01/26 05:21:39;;;;;;;9.93;5.20;;;3.40;96.80;;;;;;4918338;29;20040;-74
2021/01/26 05:24:15;;;;;;;7.53;4.80;;;3.50;96.90;;;;;;4918609;29;20037;-74
2021/01/26 05:26:41;;;;;;;;;;;3.40;97.40;;;;;;4918741;29;20056;-74
2021/01/26 05:29:08;;;;;;;9.27;5.18;;;3.60;97.80;;;;;;4918370;29;19943;-75
2021/01/26 05:31:34;;;;;;;9.55;5.95;;;3.30;97.70;;;;;;4918179;29;20063;-74
2021/01/26 05:34:08;;;;;;;8.43;5.38;;;3.40;97.50;;;;;;4909468;29;20059;-74
2021/01/26 05:36:35;;;;;;;11.57;6.20;;;4.30;97.50;;;;;;4918191;29;20041;-74
2021/01/26 05:39:07;;;;;;;10.07;5.85;;;3.40;97.20;;;;;;4918263;29;20114;-73
2021/01/26 05:41:33;;;;;;;13.65;6.05;;;2.40;97.20;;;;;;4918383;29;20083;-74
2021/01/26 05:44:00;;;;;;;12.70;6.75;;;3.30;97.40;;;;;;4932743;29;20071;-72
2021/01/26 05:46:43;;;;;;;14.43;6.90;;;3.30;97.40;;;;;;4917863;29;20138;-72
2021/01/26 05:49:09;;;;;;;8.93;6.20;;;3.30;97.30;;;;;;4917994;29;20032;-72
2021/01/26 05:51:39;;;;;;;11.88;7.47;;;3.30;97.20;;;;;;4910774;29;20063;-73
2021/01/26 05:54:19;;;;;;;11.07;6.78;;;3.50;97.30;;;;;;4917811;29;20040;-72
2021/01/26 05:56:51;;;;;;;17.85;6.93;;;3.30;97.10;;;;;;4901124;29;20044;-72
2021/01/26 05:59:35;;;;;;;12.45;6.53;;;3.30;97.00;;;;;;4917924;29;20059;-72
2021/01/26 06:02:14;;;;;;;8.57;6.55;;;3.20;97.00;;;;;;4936388;29;20070;-80
2021/01/26 06:04:40;;;;;;;12.98;6.75;;;3.20;97.10;;;;;;4901036;29;20461;-80
2021/01/26 06:07:19;;;;;;;12.45;7.18;;;4.00;97.20;;;;;;4896320;29;20565;-80
2021/01/26 06:09:46;;;;;;;10.48;7.07;;;3.10;97.00;;;;;;4913246;29;20095;-79
2021/01/26 06:12:14;;;;;;;13.38;6.38;;;3.10;97.30;;;;;;4917843;29;20496;-80
2021/01/26 06:14:45;;;;;;;9.57;6.53;;;3.00;97.00;;;;;;4918010;29;20099;-80
2021/01/26 06:17:22;;;;;;;10.38;7.13;;;3.00;97.10;;;;;;4916727;29;20082;-80
2021/01/26 06:20:05;;;;;;;11.93;6.97;;;3.00;97.20;;;;;;4900844;29;20048;-80
2021/01/26 06:22:32;;;;;;;10.75;6.38;;;3.00;97.20;;;;;;4914008;29;20044;-80
2021/01/26 06:25:27;;;;;;;14.18;6.97;;;3.00;97.50;;;;;;4902487;29;20043;-80
2021/01/26 06:28:03;;;;;;;8.93;6.32;;;3.00;97.20;;;;;;4917074;29;20056;-80
2021/01/26 06:30:38;;;;;;;;;;;2.90;97.20;;;;;;4932306;29;20059;-80
2021/01/26 06:33:26;;;;;;;10.82;6.10;;;2.90;97.40;;;;;;4917318;29;19942;-80
2021/01/26 06:36:21;;;;;;;11.60;6.65;;;2.90;97.30;;;;;;4916961;29;20036;-79
2021/01/26 06:38:50;;;;;;;8.73;5.93;;;2.90;97.30;;;;;;4916884;29;20504;-79
2021/01/26 06:41:34;;;;;;;13.68;7.45;;;2.90;97.40;;;;;;4915892;29;20040;-79
2021/01/26 06:44:06;;;;;;;14.68;7.43;;;2.80;97.40;;;;;;4913958;29;20123;-79
2021/01/26 06:47:04;;;;;;;11.48;7.60;;;2.80;97.60;;;;;;4917019;29;20044;-73
2021/01/26 06:49:49;;;;;;;14.73;8.70;;;2.80;97.70;;;;;;4917215;29;20039;-80
2021/01/26 06:52:39;;;;;;;11.25;7.28;;;2.90;97.90;;;;;;4916657;29;20508;-80
2021/01/26 06:55:05;;;;;;;17.98;8.80;;;2.90;98.30;;;;;;4932039;29;20052;-79
2021/01/26 06:57:46;;;;;;;14.20;8.98;;;2.90;98.30;;;;;;4915920;29;20055;-79
2021/01/26 07:00:28;;;;;;;16.95;8.85;;;2.90;98.30;;;;;;4907721;29;20043;-79
2021/01/26 07:03:06;;;;;;;15.82;8.45;;;2.90;98.10;;;;;;4916680;29;20130;-79
2021/01/26 07:05:50;;;;;;;10.70;7.78;;;2.90;98.10;;;;;;4931521;29;20622;-79
2021/01/26 07:08:28;;;;;;;14.40;8.02;;;2.90;98.10;;;;;;4916505;29;20051;-78
2021/01/26 07:11:05;;;;;;;12.25;7.90;;;2.80;98.00;;;;;;4917785;29;20072;-79
2021/01/26 07:13:49;;;;;;;15.05;8.55;;;2.80;98.00;;;;;;4916647;29;20040;-78
2021/01/26 07:16:54;;;;;;;12.48;8.30;;;2.80;98.00;;;;;;4915092;29;20060;-80
2021/01/26 07:19:41;;;;;;;14.68;8.65;;;2.70;98.10;;;;;;4908608;29;20067;-80
2021/01/26 07:22:37;;;;;;;13.98;8.60;;;2.70;98.20;;;;;;4916230;29;20489;-78
2021/01/26 07:25:22;;;;;;;13.52;7.90;;;2.70;98.10;;;;;;4916470;29;20118;-80
2021/01/26 07:28:25;;;;;;;14.20;9.48;;;2.70;98.10;;;;;;4931222;29;20040;-77
2021/01/26 07:30:59;;;;;;;13.15;8.68;;;2.60;98.10;;;;;;4905295;29;20059;-78
2021/01/26 07:33:54;;;;;;;13.65;8.55;;;2.60;98.00;;;;;;4887748;29;20052;-78
2021/01/26 07:36:41;;;;;;;15.70;8.55;;;2.60;98.00;;;;;;4906629;29;20036;-80
2021/01/26 07:39:31;;;;;;;18.45;9.93;;;2.50;98.10;;;;;;4897945;29;20135;-80
2021/01/26 07:42:23;;;;;;;15.25;9.02;;;2.50;98.30;;;;;;4916542;29;20071;-79
2021/01/26 07:45:14;;;;;;;17.92;9.60;;;3.40;98.50;;;;;;4916096;29;20072;-80
2021/01/26 07:48:10;;;;;;;20.90;10.52;;;2.50;98.20;;;;;;4915895;29;20592;-79
2021/01/26 07:50:48;;;;;;;15.85;9.35;;;2.50;98.30;;;;;;4911962;29;20051;-79
2021/01/26 07:53:33;;;;;;;16.13;9.25;;;2.50;98.50;;;;;;4908815;29;20044;-80
2021/01/26 07:59:29;;;;;;;15.88;8.63;;;2.50;98.10;;;;;;4919579;29;20048;-79
2021/01/26 08:02:00;;;;;;;12.27;8.75;;;2.50;98.00;;;;;;4916905;29;20032;-80
2021/01/26 08:04:43;;;;;;;15.65;9.90;;;2.50;98.20;;;;;;4915546;29;20047;-79
2021/01/26 08:07:21;;;;;;;14.10;9.75;;;2.50;98.20;;;;;;4911741;29;20040;-80
2021/01/26 08:10:01;;;;;;;22.92;9.70;;;2.90;98.30;;;;;;4913341;29;20504;-77
2021/01/26 08:12:29;;;;;;;12.52;8.25;;;2.60;98.10;;;;;;4916556;29;20050;-76
2021/01/26 08:15:11;;;;;;;15.13;9.50;;;2.60;98.00;;;;;;4915787;29;20101;-76
2021/01/26 08:17:40;;;;;;;14.63;9.00;;;2.60;98.00;;;;;;4898717;29;20052;-77
2021/01/26 08:20:32;;;;;;;15.38;8.73;;;2.60;97.90;;;;;;4914048;29;20040;-79
2021/01/26 08:23:05;;;;;;;15.98;8.27;;;2.60;97.90;;;;;;4913689;29;20390;-80
2021/01/26 08:25:34;;;;;;;19.63;9.18;;;2.60;97.90;;;;;;4911118;29;20036;-80
2021/01/26 08:28:07;;;;;;;14.02;8.90;;;2.90;98.00;;;;;;4926794;29;20052;-80
2021/01/26 08:30:38;;;;;;;12.55;8.77;;;2.60;97.90;;;;;;4895597;29;20036;-80
2021/01/26 08:33:15;;;;;;;15.32;9.32;;;2.50;97.90;;;;;;4880121;29;20497;-80
2021/01/26 08:36:04;;;;;;;14.35;8.93;;;2.50;98.00;;;;;;4909374;29;20039;-80
2021/01/26 08:38:57;;;;;;;19.17;10.13;;;2.50;98.00;;;;;;4915569;29;20040;-80
2021/01/26 08:41:31;;;;;;;13.60;8.98;;;2.50;98.00;;;;;;4915128;29;20119;-81
2021/01/26 08:43:57;;;;;;;19.35;8.75;;;2.60;98.00;;;;;;4915413;29;20561;-79
2021/01/26 08:46:57;;;;;;;16.30;9.13;;;2.50;98.00;;;;;;4941418;29;20134;-81
2021/01/26 08:49:33;;;;;;;18.33;8.70;;;2.60;98.10;;;;;;4921335;29;20070;-80
2021/01/26 08:52:21;;;;;;;20.55;9.05;;;2.60;98.20;;;;;;4902075;29;20032;-79
2021/01/26 08:54:57;;;;;;;14.05;8.77;;;2.60;98.10;;;;;;4898448;29;20055;-85
2021/01/26 08:57:29;;;;;;;15.52;8.50;;;2.70;98.30;;;;;;4918562;29;20044;-81
2021/01/26 09:00:19;;;;;;;15.65;8.77;;;2.70;98.40;;;;;;4898436;29;20077;-83
2021/01/26 09:02:50;;;;;;;19.52;8.05;;;2.70;98.20;;;;;;4916042;29;20042;-82
2021/01/26 09:05:34;;;;;;;18.25;8.93;;;2.70;98.30;;;;;;4912659;29;20497;-81
2021/01/26 09:08:07;;;;;;;15.98;8.18;;;2.80;98.20;;;;;;4933500;29;20048;-77
2021/01/26 09:10:40;;;;;;;15.98;8.57;;;3.10;98.30;;;;;;4918326;29;20040;-75
2021/01/26 09:13:32;;;;;;;17.38;8.27;;;2.80;98.30;;;;;;4916517;29;20052;-74
2021/01/26 09:16:03;;;;;;;13.30;7.57;;;2.90;98.20;;;;;;4918321;29;20425;-75
2021/01/26 09:18:30;;;;;;;19.33;7.90;;;2.90;98.30;;;;;;4932905;29;20123;-76
2021/01/26 09:21:07;;;;;;;15.38;9.00;;;2.90;98.30;;;;;;4918284;29;20036;-75
2021/01/26 09:23:35;;;;;;;15.25;8.32;;;2.90;98.30;;;;;;4917939;29;20532;-75
2021/01/26 09:26:14;;;;;;;14.65;8.00;;;3.00;98.30;;;;;;4932552;29;20048;-75
2021/01/26 09:28:42;;;;;;;14.38;7.70;;;3.10;98.30;;;;;;4918227;29;20167;-75
2021/01/26 09:31:11;;;;;;;15.77;8.48;;;3.10;98.20;;;;;;4918028;29;20040;-74
2021/01/26 09:33:37;;;;;;;14.50;7.53;;;4.10;98.50;;;;;;4916166;29;20051;-75
2021/01/26 09:36:03;;;;;;;14.18;8.70;;;3.30;98.20;;;;;;4918093;29;20152;-81
2021/01/26 09:38:41;;;;;;;18.88;8.15;;;3.40;98.30;;;;;;4910091;29;20131;-83
2021/01/26 09:41:26;;;;;;;17.15;7.82;;;3.40;98.30;;;;;;4917516;29;20033;-79
2021/01/26 09:44:16;;;;;;;17.52;8.82;;;3.50;98.20;;;;;;4913718;29;20065;-79
2021/01/26 09:46:50;;;;;;;17.13;8.00;;;3.70;98.20;;;;;;4910352;29;20106;-79
2021/01/26 09:49:27;;;;;;;12.05;8.10;;;3.90;98.20;;;;;;4917965;29;20040;-79
2021/01/26 09:52:13;;;;;;;16.17;7.22;;;3.90;97.90;;;;;;4909943;29;20040;-79
2021/01/26 09:54:41;;;;;;;19.38;8.20;;;3.90;98.00;;;;;;4913221;29;20115;-79
2021/01/26 09:57:13;;;;;;;13.20;7.25;;;4.00;98.00;;;;;;4917357;29;20040;-79
2021/01/26 09:59:39;;;;;;;14.35;7.30;;;4.10;97.80;;;;;;4917189;29;20086;-78
2021/01/26 10:02:10;;;;;;;17.10;7.28;;;4.10;97.70;;;;;;4917281;29;20088;-76
2021/01/26 10:04:38;;;;;;;14.52;7.30;;;4.20;97.60;;;;;;4916963;29;20047;-76
2021/01/26 10:07:08;;;;;;;13.65;7.57;;;4.20;97.40;;;;;;4917065;29;20509;-76
2021/01/26 10:09:34;;;;;;;15.75;6.90;;;4.30;97.30;;;;;;4917875;29;20064;-76
2021/01/26 10:12:35;;;;;;;17.65;6.35;;;4.40;97.30;;;;;;4917050;29;20413;-77
2021/01/26 10:15:13;;;;;;;11.77;6.22;;;4.60;96.70;;;;;;4889740;29;20056;-78
2021/01/26 10:17:55;;;;;;;12.57;5.88;;;4.50;96.80;;;;;;4917619;29;20104;-79
2021/01/26 10:20:24;;;;;;;14.23;5.15;;;4.20;97.00;;;;;;4917413;29;20477;-80
2021/01/26 10:23:00;;;;;;;13.75;5.80;;;4.10;97.60;;;;;;4917565;29;20052;-80
2021/01/26 10:25:26;;;;;;;;;;;4.00;98.00;;;;;;4916859;29;20048;-80
2021/01/26 10:27:52;;;;;;;9.43;5.93;;;4.00;98.30;;;;;;4932297;29;19926;-80
2021/01/26 10:30:29;;;;;;;8.80;4.47;;;3.90;98.60;;;;;;4932192;29;20092;-80
2021/01/26 10:32:55;;;;;;;14.05;5.90;;;4.20;98.60;;;;;;4916024;29;20167;-80
2021/01/26 10:35:24;;;;;;;12.52;5.45;;;3.80;98.70;;;;;;4911747;29;20119;-80
2021/01/26 10:37:53;;;;;;;13.90;5.82;;;3.80;98.90;;;;;;4917191;29;20047;-80
2021/01/26 10:40:31;;;;;;;13.05;6.43;;;3.90;99.10;;;;;;4917629;29;20040;-80
2021/01/26 10:42:59;;;;;;;10.75;5.75;;;3.90;99.20;;;;;;4900431;29;20040;-80
2021/01/26 10:45:34;;;;;;;11.93;6.45;;;4.60;99.70;;;;;;4917375;29;20058;-81
2021/01/26 10:48:16;;;;;;;13.32;6.32;;;3.90;99.40;;;;;;4916842;29;20052;-81
2021/01/26 10:50:48;;;;;;;11.02;5.57;;;4.00;99.30;;;;;;4914003;29;20040;-80
2021/01/26 10:53:31;;;;;;;17.33;6.57;;;4.10;99.30;;;;;;4931691;29;20480;-80
2021/01/26 10:55:57;;;;;;;11.15;5.60;;;4.10;99.00;;;;;;4900115;29;20127;-80
2021/01/26 10:58:23;;;;;;;14.73;6.30;;;4.10;99.10;;;;;;4916995;29;20043;-80
2021/01/26 11:00:51;;;;;;;15.18;6.72;;;4.20;99.00;;;;;;4931466;29;20036;-80
2021/01/26 11:03:17;;;;;;;19.73;7.20;;;4.60;99.10;;;;;;4916345;29;20119;-80
2021/01/26 11:05:45;;;;;;;14.85;7.00;;;4.80;99.10;;;;;;4923329;29;20117;-80
2021/01/26 11:08:12;;;;;;;13.82;6.63;;;4.30;98.80;;;;;;4931173;29;20248;-80
2021/01/26 11:10:39;;;;;;;14.80;6.53;;;4.90;98.90;;;;;;4916730;29;20115;-80
2021/01/26 11:13:06;;;;;;;16.63;6.68;;;4.40;98.70;;;;;;4899739;29;20121;-80
2021/01/26 11:15:32;;;;;;;15.38;7.57;;;4.50;98.60;;;;;;4931188;29;20040;-81
2021/01/26 11:17:58;;;;;;;16.42;6.50;;;4.40;98.70;;;;;;4897643;29;20390;-80
2021/01/26 11:20:24;;;;;;;12.20;5.50;;;4.40;98.60;;;;;;4916817;29;20036;-81
2021/01/26 11:22:53;;;;;;;15.18;4.93;;;4.40;98.50;;;;;;4914517;29;20123;-81
2021/01/26 11:25:19;;;;;;;11.57;3.58;;;4.60;98.40;;;;;;4899316;29;20036;-80
2021/01/26 11:27:47;;;;;;;11.23;3.50;;;4.60;97.90;;;;;;4900002;29;20052;-81
2021/01/26 11:30:24;;;;;;;9.55;3.30;;;4.50;97.40;;;;;;4929078;29;20052;-80
2021/01/26 11:32:53;;;;;;;8.20;3.50;;;4.20;97.50;;;;;;4905067;29;20063;-81
2021/01/26 11:35:25;;;;;;;11.45;3.60;;;4.50;97.60;;;;;;4899172;29;20391;-76
2021/01/26 11:37:52;;;;;;;7.78;3.28;;;4.70;97.30;;;;;;4920603;29;20044;-77
2021/01/26 11:40:20;;;;;;;5.22;2.90;;;4.70;97.10;;;;;;4927772;29;20511;-76
2021/01/26 11:43:00;;;;;;;10.02;3.15;;;4.60;97.10;;;;;;4931929;29;20072;-80
2021/01/26 11:45:32;;;;;;;9.30;3.38;;;4.70;97.20;;;;;;4917176;29;20106;-82
2021/01/26 11:47:59;;;;;;;9.45;2.88;;;4.70;97.00;;;;;;4917455;29;20043;-83
2021/01/26 11:50:26;;;;;;;14.18;3.47;;;4.80;97.00;;;;;;4916559;29;20488;-82
2021/01/26 11:52:52;;;;;;;7.93;3.55;;;4.90;97.00;;;;;;4918727;29;20481;-81
2021/01/26 11:55:24;;;;;;;7.30;3.20;;;4.90;97.10;;;;;;4924203;29;20552;-74
2021/01/26 11:57:51;;;;;;;4.22;2.88;;;4.90;97.00;;;;;;4924651;29;20044;-74
2021/01/26 12:00:21;;;;;;;9.15;3.08;;;4.90;97.00;;;;;;4936365;29;20035;-74
2021/01/26 12:02:46;;;;;;;7.95;2.58;;;5.00;97.00;;;;;;4911049;29;20041;-74
2021/01/26 12:05:17;;;;;;;7.05;2.60;;;5.00;97.00;;;;;;4898531;29;20076;-75
2021/01/26 12:07:43;;;;;;;7.45;2.72;;;5.60;97.00;;;;;;4915881;29;20078;-75
2021/01/26 12:10:10;;;;;;;7.13;2.70;;;5.10;96.70;;;;;;4928944;29;20046;-83
2021/01/26 12:12:36;;;;;;;6.68;2.78;;;5.10;97.00;;;;;;4915990;29;20071;-82
2021/01/26 12:15:03;;;;;;;10.55;2.47;;;5.10;96.80;;;;;;4931918;29;20056;-75
2021/01/26 12:17:29;;;;;;;7.97;2.53;;;5.20;96.70;;;;;;4919579;29;20059;-82
2021/01/26 12:20:05;;;;;;;8.30;2.40;;;5.70;96.90;;;;;;4934320;29;20400;-84
2021/01/26 12:22:31;;;;;;;10.77;2.45;;;5.20;96.60;;;;;;4910067;29;20050;-82
2021/01/26 12:24:57;;;;;;;8.13;2.58;;;5.20;96.60;;;;;;4919799;29;20040;-83
2021/01/26 12:27:23;;;;;;;9.98;2.20;;;5.30;96.20;;;;;;4919266;29;20036;-83
2021/01/26 12:29:52;;;;;;;7.90;2.47;;;5.30;95.70;;;;;;4919678;29;20095;-77
2021/01/26 12:32:17;;;;;;;8.57;2.22;;;5.30;95.80;;;;;;4919052;29;20083;-77
2021/01/26 12:34:43;;;;;;;8.95;2.13;;;5.40;95.60;;;;;;4929833;29;20042;-77
2021/01/26 12:37:09;;;;;;;4.45;1.70;;;5.40;95.90;;;;;;4918124;29;20467;-77
2021/01/26 12:39:35;;;;;;;8.65;2.80;;;5.80;95.30;;;;;;4934033;29;20040;-77
2021/01/26 12:42:01;;;;;;;10.15;1.95;;;5.40;95.00;;;;;;4919556;29;20099;-77
2021/01/26 12:44:27;;;;;;;4.50;1.73;;;6.00;94.90;;;;;;4933299;29;20067;-83
2021/01/26 12:46:55;;;;;;;5.72;1.80;;;5.40;94.80;;;;;;4902821;29;20048;-82
2021/01/26 12:49:22;;;;;;;7.10;2.13;;;5.50;94.70;;;;;;4917910;29;20448;-81
2021/01/26 12:51:51;;;;;;;9.05;2.55;;;5.50;94.10;;;;;;4919218;29;20040;-80
2021/01/26 12:54:17;;;;;;;8.00;2.63;;;5.50;94.80;;;;;;4919169;29;20040;-81
2021/01/26 12:56:43;;;;;;;6.13;2.05;;;5.50;94.20;;;;;;4919034;29;20040;-81
2021/01/26 12:59:09;;;;;;;6.95;2.10;;;5.50;94.40;;;;;;4918901;29;20440;-80
2021/01/26 13:01:35;;;;;;;4.05;1.65;;;5.50;94.50;;;;;;4933633;29;20168;-80
2021/01/26 13:04:01;;;;;;;5.07;1.70;;;5.50;94.50;;;;;;4928835;29;20400;-80
2021/01/26 13:06:26;;;;;;;11.50;1.88;;;5.60;94.10;;;;;;4918739;29;20044;-81
2021/01/26 13:08:53;;;;;;;6.55;2.10;;;5.60;94.10;;;;;;4917611;29;20040;-80
2021/01/26 13:11:21;;;;;;;9.65;1.85;;;5.60;94.10;;;;;;4918747;29;20453;-80
2021/01/26 13:13:47;;;;;;;9.57;2.10;;;5.60;94.10;;;;;;4933444;29;20054;-80
2021/01/26 13:16:13;;;;;;;8.88;1.92;;;6.40;94.40;;;;;;4933395;29;20079;-80
2021/01/26 13:18:39;;;;;;;5.63;1.80;;;5.70;94.60;;;;;;4918313;29;20397;-81
2021/01/26 13:21:05;;;;;;;3.53;1.50;;;5.70;94.90;;;;;;4917287;29;20478;-80
2021/01/26 13:23:31;;;;;;;4.15;1.17;;;5.70;94.30;;;;;;4894541;29;20087;-73
2021/01/26 13:25:57;;;;;;;5.60;0.90;;;5.70;94.40;;;;;;4915695;29;20041;-75
2021/01/26 13:28:23;;;;;;;3.67;0.95;;;5.60;94.30;;;;;;4899254;29;20088;-73